Time;durP1;ratioP1;P1;durP2;ratioP2;P2;SDS_P1;SDS_P2;PMS_P1;PMS_P2;Temp;Humidity;BMP_temperature;BMP_pressure;BME280_temperature;BME280_humidity;BME280_pressure;Samples;Min_cycle;Max_cycle;Signal;HPM_P1;HPM_P2
2022/04/29 01:35:34;;;;;;;;;;;;;;;13.03;53.08;100494.91;4966695;28;20375;-91
2022/04/29 01:38:04;;;;;;;;;;;;;;;13.11;52.77;100485.25;5001738;28;34599;-91
2022/04/29 04:56:41;;;;;;;;;;;;;;;14.35;49.29;100528.87;5404157;26;925642;-93
2022/04/29 04:59:21;;;;;;;;;;;;;;;14.63;49.64;100521.53;5442942;26;35474;-90
2022/04/29 05:02:07;;;;;;;;;;;;;;;15.39;45.92;100534.97;5441886;26;34290;-90
2022/04/29 05:04:47;;;;;;;;;;;;;;;16.37;43.55;100519.78;5440378;26;34303;-92
2022/04/29 05:07:38;;;;;;;;;;;;;;;17.17;41.08;100523.03;5439825;26;34751;-91
2022/04/29 05:10:18;;;;;;;;;;;;;;;17.77;40.39;100525.75;5437914;26;34445;-91
2022/04/29 05:13:13;;;;;;;;;;;;;;;18.20;38.70;100524.47;5439588;26;34651;-90
2022/04/29 05:15:57;;;;;;;;;;;;;;;18.92;36.85;100530.88;5438460;26;37161;-91
2022/04/29 05:18:41;;;;;;;;;;;;;;;19.16;36.76;100537.06;5444770;26;35112;-88
2022/04/29 05:28:18;;;;;;;;;;;;;;;19.35;35.54;100541.66;5386943;26;34468;-91
2022/04/29 05:54:18;;;;;;;;;;;;;;;18.62;35.86;100535.34;5316095;27;35171;-91
2022/04/29 05:56:48;;;;;;;;;;;;;;;18.51;36.03;100534.88;5297186;27;33265;-89
2022/04/29 05:59:26;;;;;;;;;;;;;;;18.36;36.64;100533.56;5297486;27;34344;-91
2022/04/29 06:01:59;;;;;;;;;;;;;;;18.06;35.34;100535.41;5305591;26;33172;-91
2022/04/29 06:04:35;;;;;;;;;;;;;;;17.80;35.70;100544.91;5412346;26;34354;-88
2022/04/29 06:07:06;;;;;;;;;;;;;;;17.72;36.08;100544.25;5432512;26;33783;-92
2022/04/29 06:09:48;;;;;;;;;;;;;;;17.64;37.33;100551.50;5432229;26;33823;-93
2022/04/29 06:12:18;;;;;;;;;;;;;;;17.79;37.65;100552.81;5430647;26;35409;-91
2022/04/29 06:15:14;;;;;;;;;;;;;;;17.77;37.62;100555.47;5409569;26;34768;-90
2022/04/29 06:17:53;;;;;;;;;;;;;;;17.53;38.70;100553.53;5410320;26;33476;-91
2022/04/29 06:20:25;;;;;;;;;;;;;;;17.83;36.83;100547.44;5431382;26;33001;-90
2022/04/29 06:26:27;;;;;;;;;;;;;;;17.46;37.98;100552.84;5409894;26;36808;-90
2022/04/29 06:29:23;;;;;;;;;;;;;;;17.69;36.51;100547.81;5431869;26;33076;-93
2022/04/29 06:32:25;;;;;;;;;;;;;;;17.71;36.55;100555.66;5429160;26;35111;-90
2022/04/29 06:35:06;;;;;;;;;;;;;;;17.71;36.02;100555.66;5391223;26;33470;-90
2022/04/29 06:37:34;;;;;;;;;;;;;;;17.55;36.22;100555.22;5408462;26;34276;-90
2022/04/29 06:40:05;;;;;;;;;;;;;;;17.42;34.24;100557.34;5408551;26;32974;-91
2022/04/29 06:42:45;;;;;;;;;;;;;;;17.47;33.90;100559.84;5407825;26;34588;-90
2022/04/29 06:45:27;;;;;;;;;;;;;;;16.99;34.21;100553.22;5407310;26;32739;-89
2022/04/29 06:48:03;;;;;;;;;;;;;;;17.13;35.05;100552.88;5407476;26;33973;-89
2022/04/29 06:50:34;;;;;;;;;;;;;;;17.16;34.88;100558.03;5408978;26;32733;-89
2022/04/29 06:53:15;;;;;;;;;;;;;;;17.57;33.70;100548.16;5411570;26;33737;-90
2022/04/29 06:55:43;;;;;;;;;;;;;;;17.45;33.72;100549.37;5408033;26;34366;-89
2022/04/29 06:58:12;;;;;;;;;;;;;;;17.67;34.00;100549.63;5408092;26;33718;-90
2022/04/29 07:00:45;;;;;;;;;;;;;;;17.21;33.20;100548.28;5386837;26;34131;-90
2022/04/29 07:03:14;;;;;;;;;;;;;;;17.79;32.47;100552.81;5407787;26;33669;-89
2022/04/29 07:05:46;;;;;;;;;;;;;;;17.58;32.84;100549.88;5389911;26;34865;-89
2022/04/29 07:08:16;;;;;;;;;;;;;;;17.69;32.58;100549.59;5410374;26;34516;-88
2022/04/29 07:11:00;;;;;;;;;;;;;;;17.72;32.08;100554.75;5416589;26;33667;-90
2022/04/29 07:13:32;;;;;;;;;;;;;;;18.23;31.03;100548.00;5407011;26;32660;-90
2022/04/29 07:16:02;;;;;;;;;;;;;;;17.29;32.37;100550.69;5405921;26;34521;-90
2022/04/29 07:18:33;;;;;;;;;;;;;;;18.10;31.54;100547.53;5412645;26;34201;-90
2022/04/29 07:23:47;;;;;;;;;;;;;;;18.43;30.02;100553.47;5416492;26;34962;-89
2022/04/29 07:26:15;;;;;;;;;;;;;;;17.83;31.44;100550.06;5408893;26;34330;-87
2022/04/29 07:28:43;;;;;;;;;;;;;;;18.40;30.43;100553.59;5408255;26;34193;-89
2022/04/29 07:31:22;;;;;;;;;;;;;;;18.39;31.05;100556.25;5387565;26;35221;-89
2022/04/29 07:33:55;;;;;;;;;;;;;;;17.69;30.84;100550.44;5419253;26;34274;-89
2022/04/29 07:53:49;;;;;;;;;;;;;;;18.13;30.14;100555.31;5186260;27;34816;-88
2022/04/29 07:56:40;;;;;;;;;;;;;;;18.29;30.43;100553.06;5168769;27;33164;-89
2022/04/29 07:59:35;;;;;;;;;;;;;;;18.69;28.87;100550.00;5186996;27;34154;-89
2022/04/29 09:39:54;;;;;;;;;;;;;;;20.60;24.63;100491.19;5173963;27;34516;-87
2022/04/29 09:42:23;;;;;;;;;;;;;;;20.49;24.55;100484.63;5238385;27;32619;-88
2022/04/29 09:44:52;;;;;;;;;;;;;;;20.84;24.81;100491.94;5269665;27;34954;-84
2022/04/29 09:47:20;;;;;;;;;;;;;;;20.95;24.61;100485.34;5292666;27;34593;-86
2022/04/29 09:49:58;;;;;;;;;;;;;;;21.09;23.72;100488.22;5292148;27;33695;-86
2022/04/29 09:52:30;;;;;;;;;;;;;;;20.66;23.05;100482.19;5298274;27;32697;-88
2022/04/29 09:55:21;;;;;;;;;;;;;;;20.68;23.60;100477.69;5291437;27;34078;-88
2022/04/29 09:57:49;;;;;;;;;;;;;;;21.18;24.34;100469.34;5295728;27;33584;-88
2022/04/29 10:00:18;;;;;;;;;;;;;;;20.56;25.30;100478.22;5315948;27;33839;-88
2022/04/29 10:02:48;;;;;;;;;;;;;;;21.26;24.13;100472.53;5349183;26;33184;-87
2022/04/29 10:05:17;;;;;;;;;;;;;;;21.45;24.22;100477.84;5407589;26;33519;-87
2022/04/29 10:07:49;;;;;;;;;;;;;;;21.54;23.12;100463.38;5391756;26;32913;-87
2022/04/29 10:10:20;;;;;;;;;;;;;;;21.77;21.56;100474.63;5407124;26;33519;-88
2022/04/29 10:12:50;;;;;;;;;;;;;;;21.09;23.07;100467.13;5407269;26;33482;-89
2022/04/29 10:15:21;;;;;;;;;;;;;;;21.47;23.48;100469.84;5408765;26;34369;-88
2022/04/29 10:23:32;;;;;;;;;;;;;;;20.50;24.49;100471.41;5410502;26;33179;-87
2022/04/29 10:26:02;;;;;;;;;;;;;;;21.20;24.67;100464.03;5411899;26;34164;-88
2022/04/29 10:28:34;;;;;;;;;;;;;;;21.12;23.72;100461.75;5408432;26;34336;-88
2022/04/29 10:31:05;;;;;;;;;;;;;;;21.44;23.67;100460.31;5406047;26;34800;-87
2022/04/29 10:33:36;;;;;;;;;;;;;;;20.76;23.51;100462.41;5407014;26;33165;-87
2022/04/29 10:36:08;;;;;;;;;;;;;;;21.47;22.64;100451.38;5407531;26;34981;-89
2022/04/29 10:38:37;;;;;;;;;;;;;;;21.17;23.31;100454.47;5410374;26;33844;-86
2022/04/29 10:41:12;;;;;;;;;;;;;;;21.55;21.80;100446.59;5406351;26;33925;-87
2022/04/29 10:43:41;;;;;;;;;;;;;;;21.84;21.42;100449.63;5405637;26;33548;-88
2022/04/29 10:46:16;;;;;;;;;;;;;;;21.84;22.09;100444.34;5406200;26;33874;-87
2022/04/29 10:48:46;;;;;;;;;;;;;;;21.33;22.17;100448.47;5407763;26;34342;-88
2022/04/29 10:51:17;;;;;;;;;;;;;;;21.97;21.73;100440.22;5406562;26;34901;-88
2022/04/29 10:53:48;;;;;;;;;;;;;;;22.13;21.98;100441.19;5410749;26;32685;-88
2022/04/29 10:56:36;;;;;;;;;;;;;;;22.65;20.70;100442.16;5407323;26;33615;-88
2022/04/29 10:59:18;;;;;;;;;;;;;;;22.68;21.39;100445.50;5407029;26;34644;-87
2022/04/29 11:01:51;;;;;;;;;;;;;;;22.91;20.86;100438.19;5408171;26;34213;-89
2022/04/29 11:04:38;;;;;;;;;;;;;;;23.18;21.53;100434.09;5409147;26;33119;-88
2022/04/29 11:07:07;;;;;;;;;;;;;;;23.15;21.27;100433.41;5407753;26;35253;-87
2022/04/29 11:09:48;;;;;;;;;;;;;;;22.67;21.09;100424.44;5407693;26;34668;-87
2022/04/29 11:12:29;;;;;;;;;;;;;;;22.14;23.43;100415.59;5411029;26;34023;-88
2022/04/29 11:15:14;;;;;;;;;;;;;;;22.51;23.56;100422.56;5408567;26;33909;-88
2022/04/29 11:17:47;;;;;;;;;;;;;;;22.79;23.19;100423.78;5406717;26;34149;-87
2022/04/29 11:20:17;;;;;;;;;;;;;;;22.36;23.43;100420.69;5406616;26;34435;-88
2022/04/29 11:25:48;;;;;;;;;;;;;;;22.28;23.47;100407.88;5408592;26;33624;-87
2022/04/29 11:28:17;;;;;;;;;;;;;;;22.26;22.83;100406.25;5407766;26;33690;-86
2022/04/29 11:30:50;;;;;;;;;;;;;;;22.09;22.96;100407.91;5412366;26;35310;-86
2022/04/29 11:33:24;;;;;;;;;;;;;;;22.19;22.79;100389.81;5414746;26;34961;-86
2022/04/29 11:35:53;;;;;;;;;;;;;;;22.01;23.09;100399.50;5402477;26;32917;-88
2022/04/29 11:38:41;;;;;;;;;;;;;;;21.70;23.89;100395.72;5402808;26;34515;-87
2022/04/29 11:41:15;;;;;;;;;;;;;;;21.72;24.85;100396.50;5403604;26;34032;-88
2022/04/29 11:43:45;;;;;;;;;;;;;;;21.77;25.46;100396.28;5404442;26;34921;-88
2022/04/29 11:46:16;;;;;;;;;;;;;;;21.43;26.44;100384.69;5409124;26;33286;-88
2022/04/29 11:48:51;;;;;;;;;;;;;;;21.61;26.54;100390.03;5406711;26;33563;-88
2022/04/29 11:51:20;;;;;;;;;;;;;;;21.30;26.82;100380.88;5403551;26;33738;-88
2022/04/29 11:53:55;;;;;;;;;;;;;;;21.44;26.76;100389.03;5403102;26;33520;-88
2022/04/29 11:56:30;;;;;;;;;;;;;;;21.36;26.32;100390.28;5402993;26;32936;-88
2022/04/29 11:58:59;;;;;;;;;;;;;;;21.20;25.92;100375.16;5403228;26;34848;-88
2022/04/29 12:01:30;;;;;;;;;;;;;;;21.72;24.19;100383.28;5409176;26;34865;-88
2022/04/29 12:03:59;;;;;;;;;;;;;;;21.47;24.85;100377.47;5403447;26;33382;-89
2022/04/29 12:06:28;;;;;;;;;;;;;;;21.37;24.71;100370.88;5403698;26;33495;-90
2022/04/29 12:08:56;;;;;;;;;;;;;;;22.06;24.14;100373.72;5402699;26;34924;-90
2022/04/29 12:11:26;;;;;;;;;;;;;;;22.41;23.05;100365.81;5403296;26;35084;-90
2022/04/29 12:14:13;;;;;;;;;;;;;;;22.19;23.41;100365.16;5409333;26;34718;-91
2022/04/29 12:16:47;;;;;;;;;;;;;;;22.34;23.42;100359.97;5409424;26;33359;-91
2022/04/29 12:19:22;;;;;;;;;;;;;;;22.10;23.09;100362.03;5404346;26;34812;-89
2022/04/29 12:21:55;;;;;;;;;;;;;;;22.34;23.50;100359.13;5404457;26;33990;-90
2022/04/29 12:24:26;;;;;;;;;;;;;;;22.33;22.55;100352.13;5404611;26;33433;-89
2022/04/29 12:27:02;;;;;;;;;;;;;;;23.04;23.25;100348.44;5404671;26;33324;-90
2022/04/29 12:29:30;;;;;;;;;;;;;;;23.92;22.28;100341.72;5403780;26;34915;-90
2022/04/29 12:35:06;;;;;;;;;;;;;;;24.47;20.23;100341.13;5408534;26;33522;-89
2022/04/29 12:37:36;;;;;;;;;;;;;;;24.32;22.57;100342.88;5404068;26;33068;-89
2022/04/29 12:40:26;;;;;;;;;;;;;;;24.23;23.32;100346.06;5404414;26;34446;-89
2022/04/29 12:43:09;;;;;;;;;;;;;;;23.66;23.02;100335.28;5404859;26;35161;-90
2022/04/29 12:45:37;;;;;;;;;;;;;;;23.47;24.28;100338.97;5384612;26;37008;-90
2022/04/29 12:48:11;;;;;;;;;;;;;;;23.57;23.40;100332.19;5405418;26;33720;-89
2022/04/29 12:50:52;;;;;;;;;;;;;;;23.39;23.41;100334.09;5407369;26;35381;-91
2022/04/29 13:30:08;;;;;;;;;;;;;;;25.04;22.38;100284.53;5317038;27;34519;-90
2022/04/29 13:32:39;;;;;;;;;;;;;;;25.68;20.79;100283.00;5308476;27;35166;-89
2022/04/29 13:35:16;;;;;;;;;;;;;;;26.08;20.03;100280.34;5363727;26;34506;-90
2022/04/29 13:38:27;;;;;;;;;;;;;;;26.18;19.28;100283.22;5382885;26;33335;-88
2022/04/29 13:49:10;;;;;;;;;;;;;;;26.69;16.97;100279.72;5269171;27;36287;-89
2022/04/29 13:58:34;;;;;;;;;;;;;;;24.94;18.97;100278.97;5183177;27;35801;-89
2022/04/29 14:01:04;;;;;;;;;;;;;;;24.06;19.68;100263.09;5188662;27;33717;-89
2022/04/29 14:03:36;;;;;;;;;;;;;;;23.67;20.70;100266.28;5182741;27;32813;-90
2022/04/29 14:06:06;;;;;;;;;;;;;;;22.80;22.86;100264.97;5183568;27;35087;-90
2022/04/29 14:08:37;;;;;;;;;;;;;;;22.75;22.10;100263.53;5212284;27;33236;-91
2022/04/29 14:11:07;;;;;;;;;;;;;;;22.86;21.39;100269.09;5289704;27;33762;-90
2022/04/29 14:13:36;;;;;;;;;;;;;;;22.88;21.96;100261.94;5291470;27;33623;-89
2022/04/29 14:16:08;;;;;;;;;;;;;;;22.58;22.72;100260.00;5294857;27;34766;-91
2022/04/29 14:18:36;;;;;;;;;;;;;;;22.80;22.67;100256.19;5287631;27;34104;-88
2022/04/29 14:21:08;;;;;;;;;;;;;;;22.58;22.42;100249.41;5287497;27;33532;-89
2022/04/29 14:23:40;;;;;;;;;;;;;;;22.51;22.53;100249.84;5288624;27;32936;-90
2022/04/29 14:26:09;;;;;;;;;;;;;;;22.54;22.09;100247.91;5288727;27;34727;-90
2022/04/29 14:28:38;;;;;;;;;;;;;;;22.54;24.28;100255.84;5310613;26;35049;-89
2022/04/29 14:31:09;;;;;;;;;;;;;;;22.48;24.93;100245.56;5359701;26;35553;-90
2022/04/29 14:58:03;;;;;;;;;;;;;;;23.92;20.91;100230.44;5405771;26;33912;-90
2022/04/29 15:01:09;;;;;;;;;;;;;;;23.99;20.70;100232.63;5406492;26;34519;-90
2022/04/29 18:24:02;;;;;;;;;;;;;;;17.89;39.14;100239.28;5247961;27;33923;-89
2022/04/29 18:26:32;;;;;;;;;;;;;;;18.00;38.49;100239.78;5246727;27;34068;-89
2022/04/29 18:29:00;;;;;;;;;;;;;;;17.81;39.00;100244.81;5246624;27;33681;-90
2022/04/29 18:31:30;;;;;;;;;;;;;;;17.70;39.45;100245.13;5253169;27;34318;-89
2022/04/29 18:34:00;;;;;;;;;;;;;;;17.76;39.84;100245.81;5246552;27;33801;-89
2022/04/29 18:36:28;;;;;;;;;;;;;;;17.55;39.67;100252.66;5257066;26;34299;-89
2022/04/29 18:38:57;;;;;;;;;;;;;;;17.59;39.58;100256.88;5354581;26;33675;-90
2022/04/29 18:41:26;;;;;;;;;;;;;;;17.57;39.31;100264.81;5356722;26;33455;-88
2022/04/29 18:43:56;;;;;;;;;;;;;;;17.46;40.05;100259.06;5362170;26;32872;-89
2022/04/29 18:46:24;;;;;;;;;;;;;;;17.41;40.74;100255.72;5361786;26;33760;-89
2022/04/29 18:48:53;;;;;;;;;;;;;;;17.31;40.64;100257.78;5355824;26;33956;-89
2022/04/29 18:51:23;;;;;;;;;;;;;;;17.17;40.54;100254.75;5355617;26;34864;-89
2022/04/29 18:53:51;;;;;;;;;;;;;;;17.17;40.30;100258.22;5356857;26;33000;-89
2022/04/29 18:56:20;;;;;;;;;;;;;;;17.09;40.15;100257.59;5369837;26;34121;-89
2022/04/29 18:58:49;;;;;;;;;;;;;;;16.99;39.91;100257.03;5410388;26;34001;-89
2022/04/29 19:01:18;;;;;;;;;;;;;;;16.89;39.43;100263.47;5383949;26;34080;-89
2022/04/29 19:03:47;;;;;;;;;;;;;;;16.86;40.37;100263.53;5403722;26;34012;-89
2022/04/29 19:06:16;;;;;;;;;;;;;;;16.80;40.12;100264.59;5403396;26;35051;-89
2022/04/29 19:08:51;;;;;;;;;;;;;;;16.84;39.86;100273.19;5404453;26;34159;-89
2022/04/29 19:11:20;;;;;;;;;;;;;;;16.73;40.90;100264.78;5410032;26;33616;-89
2022/04/29 19:13:49;;;;;;;;;;;;;;;16.67;40.93;100268.41;5403171;26;33458;-89
2022/04/29 19:16:17;;;;;;;;;;;;;;;16.71;41.08;100275.28;5403756;26;34552;-88
2022/04/29 19:18:46;;;;;;;;;;;;;;;16.52;41.07;100280.19;5404367;26;35157;-88
2022/04/29 19:21:15;;;;;;;;;;;;;;;16.50;41.32;100273.28;5404123;26;34004;-88
2022/04/29 19:23:45;;;;;;;;;;;;;;;16.48;41.39;100262.00;5410599;26;33090;-89
2022/04/29 19:26:16;;;;;;;;;;;;;;;16.38;40.74;100267.50;5408548;26;34360;-89
2022/04/29 19:28:44;;;;;;;;;;;;;;;16.32;41.00;100275.53;5403025;26;33178;-89
2022/04/29 19:31:14;;;;;;;;;;;;;;;16.27;41.29;100277.41;5403607;26;34570;-89
2022/04/29 19:33:43;;;;;;;;;;;;;;;16.18;41.19;100275.88;5403976;26;33370;-88
2022/04/29 19:36:15;;;;;;;;;;;;;;;16.11;41.57;100281.34;5404247;26;34276;-88
2022/04/29 19:38:44;;;;;;;;;;;;;;;16.31;40.43;100279.06;5389995;26;33171;-89
2022/04/29 19:41:12;;;;;;;;;;;;;;;16.18;40.52;100280.28;5403353;26;34473;-89
2022/04/29 19:43:43;;;;;;;;;;;;;;;15.85;41.80;100271.53;5403842;26;33405;-89
2022/04/29 19:46:12;;;;;;;;;;;;;;;15.91;41.47;100282.72;5403376;26;34652;-89
2022/04/29 19:48:41;;;;;;;;;;;;;;;15.74;42.08;100288.37;5403536;26;33586;-89
2022/04/29 19:51:09;;;;;;;;;;;;;;;15.82;42.32;100280.31;5409582;26;34648;-89
2022/04/29 19:53:40;;;;;;;;;;;;;;;15.78;41.83;100276.94;5402872;26;32999;-89
2022/04/29 19:56:08;;;;;;;;;;;;;;;15.82;41.73;100285.56;5403161;26;34264;-88
2022/04/29 20:04:12;;;;;;;;;;;;;;;15.70;42.02;100273.63;5403084;26;33979;-89
2022/04/29 20:06:41;;;;;;;;;;;;;;;15.73;42.40;100278.81;5409175;26;32399;-89
2022/04/29 20:09:10;;;;;;;;;;;;;;;15.66;42.64;100277.22;5405870;26;34280;-89
2022/04/29 20:11:46;;;;;;;;;;;;;;;15.50;42.55;100278.47;5402032;26;34843;-89
2022/04/29 20:14:16;;;;;;;;;;;;;;;15.38;42.76;100281.37;5402699;26;33319;-89
2022/04/29 20:16:46;;;;;;;;;;;;;;;15.51;42.00;100280.19;5402610;26;34944;-88
2022/04/29 20:19:16;;;;;;;;;;;;;;;15.40;42.91;100282.22;5403450;26;34032;-89
2022/04/29 20:21:44;;;;;;;;;;;;;;;15.41;43.17;100290.00;5409451;26;33827;-89
2022/04/29 20:24:16;;;;;;;;;;;;;;;15.33;42.71;100287.56;5381889;26;32525;-89
2022/04/29 20:26:46;;;;;;;;;;;;;;;15.41;42.82;100282.16;5406398;26;34340;-89
2022/04/29 20:29:14;;;;;;;;;;;;;;;15.28;43.59;100286.81;5402503;26;34206;-88
2022/04/29 20:31:43;;;;;;;;;;;;;;;15.21;43.24;100282.62;5402297;26;33718;-89
2022/04/29 20:34:13;;;;;;;;;;;;;;;15.12;43.05;100290.69;5409040;26;33166;-89
2022/04/29 20:36:41;;;;;;;;;;;;;;;15.23;42.78;100286.06;5403225;26;34224;-89
2022/04/29 20:45:15;;;;;;;;;;;;;;;15.07;42.54;100282.06;5333649;26;33054;-89
2022/04/29 20:47:44;;;;;;;;;;;;;;;14.98;43.09;100288.37;5332480;26;33749;-89
2022/04/29 20:50:13;;;;;;;;;;;;;;;15.09;42.38;100283.75;5373792;26;33992;-89
2022/04/29 20:52:42;;;;;;;;;;;;;;;14.98;43.18;100287.50;5407916;26;34012;-89
2022/04/29 20:55:17;;;;;;;;;;;;;;;15.00;43.21;100283.09;5408116;26;33230;-90
2022/04/29 20:57:45;;;;;;;;;;;;;;;14.88;43.81;100287.72;5401774;26;34661;-90
2022/04/29 21:00:15;;;;;;;;;;;;;;;15.01;43.55;100284.84;5401535;26;33555;-88
2022/04/29 21:02:44;;;;;;;;;;;;;;;14.83;43.48;100289.53;5401525;26;33689;-88
2022/04/29 21:05:41;;;;;;;;;;;;;;;15.04;42.02;100282.16;5403425;26;33432;-89
2022/04/29 21:08:13;;;;;;;;;;;;;;;14.79;43.26;100287.06;5403202;26;34051;-88
2022/04/29 21:10:41;;;;;;;;;;;;;;;14.89;41.99;100288.56;5409191;26;34289;-88
2022/04/29 21:13:10;;;;;;;;;;;;;;;14.85;42.50;100293.00;5403085;26;34792;-88
2022/04/29 21:15:39;;;;;;;;;;;;;;;14.74;42.91;100289.75;5402953;26;33406;-88
2022/04/29 21:18:08;;;;;;;;;;;;;;;14.85;43.54;100287.75;5403058;26;34300;-89
2022/04/29 21:20:38;;;;;;;;;;;;;;;14.82;43.34;100287.84;5403014;26;34976;-89
2022/04/29 21:23:08;;;;;;;;;;;;;;;14.71;43.84;100289.81;5408494;26;33538;-89
2022/04/29 21:25:36;;;;;;;;;;;;;;;14.87;43.44;100295.59;5402029;26;33177;-89
2022/04/29 21:28:05;;;;;;;;;;;;;;;14.80;43.85;100289.62;5402958;26;33753;-88
2022/04/29 21:33:21;;;;;;;;;;;;;;;14.62;44.01;100285.66;5380950;26;33442;-88
2022/04/29 21:35:51;;;;;;;;;;;;;;;14.71;43.32;100282.84;5402865;26;33426;-88
2022/04/29 21:38:20;;;;;;;;;;;;;;;14.61;43.94;100291.75;5388726;26;34149;-89
2022/04/29 21:40:48;;;;;;;;;;;;;;;14.69;44.46;100292.47;5402507;26;35083;-88
2022/04/29 21:43:17;;;;;;;;;;;;;;;14.74;42.67;100295.00;5402464;26;34597;-88
2022/04/29 21:45:45;;;;;;;;;;;;;;;14.75;42.14;100298.44;5402430;26;33052;-88
2022/04/29 21:48:15;;;;;;;;;;;;;;;14.56;42.99;100287.50;5402183;26;34546;-89
2022/04/29 21:50:43;;;;;;;;;;;;;;;14.46;43.31;100294.63;5408707;26;33799;-88
2022/04/29 21:53:14;;;;;;;;;;;;;;;14.39;43.52;100299.09;5402555;26;33810;-89
2022/04/29 21:55:45;;;;;;;;;;;;;;;14.41;43.10;100299.09;5403642;26;35543;-88
2022/04/29 21:58:14;;;;;;;;;;;;;;;14.51;43.58;100298.00;5403498;26;34179;-88
2022/04/29 22:00:46;;;;;;;;;;;;;;;14.43;43.44;100305.16;5403282;26;33842;-90
2022/04/29 22:03:16;;;;;;;;;;;;;;;14.25;44.34;100306.34;5408972;26;33737;-88
2022/04/29 22:05:45;;;;;;;;;;;;;;;14.20;44.54;100301.19;5407558;26;33997;-89
2022/04/29 22:08:15;;;;;;;;;;;;;;;14.36;44.01;100299.16;5402967;26;33599;-89
2022/04/29 22:10:46;;;;;;;;;;;;;;;14.33;44.68;100299.25;5403095;26;35189;-89
2022/04/29 22:13:14;;;;;;;;;;;;;;;14.18;45.22;100303.00;5402721;26;34230;-89
2022/04/29 22:15:43;;;;;;;;;;;;;;;14.22;44.88;100303.78;5402292;26;33380;-89
2022/04/29 22:18:14;;;;;;;;;;;;;;;14.23;45.05;100303.78;5408258;26;35456;-88
2022/04/29 22:20:43;;;;;;;;;;;;;;;14.09;45.27;100300.56;5403200;26;33888;-88
2022/04/29 22:23:12;;;;;;;;;;;;;;;14.11;44.63;100303.12;5402658;26;33688;-88
2022/04/29 22:25:42;;;;;;;;;;;;;;;14.05;44.80;100304.94;5402495;26;32638;-88
2022/04/29 22:28:10;;;;;;;;;;;;;;;13.90;45.12;100302.63;5403244;26;34356;-89
2022/04/29 22:30:39;;;;;;;;;;;;;;;13.73;45.64;100299.44;5409245;26;33870;-89
2022/04/29 22:33:07;;;;;;;;;;;;;;;13.70;45.86;100300.34;5402222;26;34415;-89
2022/04/29 22:35:37;;;;;;;;;;;;;;;13.83;45.70;100303.59;5402839;26;33292;-88
2022/04/29 22:38:06;;;;;;;;;;;;;;;13.70;46.04;100299.47;5402548;26;34587;-88
2022/04/29 22:40:34;;;;;;;;;;;;;;;13.42;46.39;100286.88;5403138;26;33820;-87
2022/04/29 22:43:04;;;;;;;;;;;;;;;13.60;46.14;100289.19;5408824;26;33842;-87
2022/04/29 22:45:32;;;;;;;;;;;;;;;13.52;46.56;100284.97;5402746;26;33416;-88
2022/04/29 22:48:02;;;;;;;;;;;;;;;13.41;46.81;100274.75;5403077;26;34298;-88
2022/04/29 22:50:30;;;;;;;;;;;;;;;13.40;47.13;100280.81;5402482;26;34453;-88
2022/04/29 22:53:00;;;;;;;;;;;;;;;13.39;47.33;100276.50;5402858;26;34143;-88
2022/04/29 22:55:28;;;;;;;;;;;;;;;13.18;47.68;100272.44;5402353;26;33522;-89
2022/04/29 22:57:58;;;;;;;;;;;;;;;13.16;47.55;100279.41;5408516;26;35921;-88
2022/04/29 23:00:37;;;;;;;;;;;;;;;13.36;47.35;100277.41;5402770;26;34204;-88
2022/04/29 23:03:10;;;;;;;;;;;;;;;13.17;47.37;100276.78;5400954;26;33860;-88
2022/04/29 23:05:40;;;;;;;;;;;;;;;13.20;47.38;100271.53;5402122;26;33528;-89
2022/04/29 23:08:09;;;;;;;;;;;;;;;13.27;46.29;100268.84;5401630;26;34140;-89
2022/04/29 23:10:38;;;;;;;;;;;;;;;13.34;46.61;100276.56;5407450;26;34692;-88
2022/04/29 23:13:06;;;;;;;;;;;;;;;13.42;46.00;100272.09;5401768;26;34459;-89
2022/04/29 23:15:36;;;;;;;;;;;;;;;13.48;46.27;100268.50;5400814;26;33231;-88
2022/04/29 23:20:55;;;;;;;;;;;;;;;13.20;47.38;100261.09;5402255;26;34167;-90
2022/04/29 23:23:26;;;;;;;;;;;;;;;13.44;47.18;100266.88;5381773;26;33470;-89
2022/04/29 23:25:54;;;;;;;;;;;;;;;13.48;46.73;100265.91;5408232;26;33239;-89
2022/04/29 23:28:23;;;;;;;;;;;;;;;13.38;47.32;100259.12;5402675;26;35159;-89
2022/04/29 23:30:53;;;;;;;;;;;;;;;13.28;47.33;100257.56;5403939;26;34611;-88
2022/04/29 23:33:21;;;;;;;;;;;;;;;13.40;46.69;100252.16;5405180;26;34583;-90
2022/04/29 23:35:50;;;;;;;;;;;;;;;13.26;47.22;100256.69;5402510;26;33377;-91
2022/04/29 23:38:19;;;;;;;;;;;;;;;13.16;47.41;100254.19;5408401;26;34971;-88
2022/04/29 23:40:50;;;;;;;;;;;;;;;13.33;47.12;100255.72;5407675;26;34128;-89
2022/04/29 23:43:18;;;;;;;;;;;;;;;13.46;46.77;100252.06;5403174;26;34698;-87
2022/04/29 23:45:46;;;;;;;;;;;;;;;13.36;46.96;100251.34;5402131;26;32804;-87
2022/04/29 23:48:17;;;;;;;;;;;;;;;13.49;46.53;100246.78;5402456;26;34162;-88
2022/04/29 23:50:45;;;;;;;;;;;;;;;13.56;46.14;100251.03;5403820;26;33700;-89
2022/04/29 23:53:14;;;;;;;;;;;;;;;13.66;45.96;100249.12;5407521;26;34099;-89
2022/04/29 23:55:45;;;;;;;;;;;;;;;13.45;46.56;100251.19;5381935;26;31804;-89
2022/04/29 23:58:14;;;;;;;;;;;;;;;13.52;46.39;100249.34;5402357;26;33782;-89
